createdAt,value
2019-01-17T00:01:20.582Z,28.40
2019-01-17T00:04:07.292Z,25.33
2019-01-17T00:06:53.990Z,23.93
2019-01-17T00:09:24.095Z,25.43
2019-01-17T00:12:12.370Z,26.63
2019-01-17T00:14:48.261Z,22.27
2019-01-17T00:17:35.014Z,22.10
2019-01-17T00:20:15.670Z,24.20
2019-01-17T00:22:57.424Z,21.77
2019-01-17T00:25:36.553Z,23.20
2019-01-17T00:28:06.721Z,20.90
2019-01-17T00:30:53.384Z,21.60
2019-01-17T00:33:32.477Z,22.57
2019-01-17T00:36:14.700Z,20.77
2019-01-17T00:38:47.642Z,18.80
2019-01-17T00:41:17.739Z,20.93
2019-01-17T00:43:47.852Z,19.17
2019-01-17T00:46:23.687Z,19.37
2019-01-17T00:48:53.780Z,20.33
2019-01-17T00:51:42.221Z,18.63
2019-01-17T00:54:18.110Z,19.60
2019-01-17T00:56:57.525Z,18.00
2019-01-17T00:59:30.710Z,21.83
2019-01-17T01:02:04.062Z,17.67
2019-01-17T01:04:37.498Z,17.73
2019-01-17T01:07:10.415Z,18.90
2019-01-17T01:09:57.104Z,16.43
2019-01-17T01:12:45.689Z,21.47
2019-01-17T01:15:30.828Z,15.77
2019-01-17T01:18:16.866Z,15.40
2019-01-17T01:20:46.971Z,15.43
2019-01-17T01:23:20.016Z,16.23
2019-01-17T01:25:53.162Z,11.93
2019-01-17T01:28:32.058Z,13.60
2019-01-17T01:31:07.865Z,11.10
2019-01-17T01:33:37.960Z,13.27
2019-01-17T01:36:11.143Z,12.53
2019-01-17T01:38:47.459Z,12.47
2019-01-17T01:41:20.735Z,12.20
2019-01-17T01:43:50.838Z,13.70
2019-01-17T01:46:21.015Z,13.37
2019-01-17T01:49:06.058Z,11.83
2019-01-17T01:51:39.114Z,14.70
2019-01-17T01:54:07.570Z,10.93
2019-01-17T01:56:36.004Z,12.90
2019-01-17T01:59:04.648Z,12.63
2019-01-17T02:01:33.184Z,13.13
2019-01-17T02:04:01.645Z,12.50
2019-01-17T02:06:30.186Z,13.17
2019-01-17T02:08:58.672Z,11.43
2019-01-17T02:11:27.118Z,11.37
2019-01-17T02:13:55.863Z,12.07
2019-01-17T02:16:24.317Z,13.33
2019-01-17T02:18:52.809Z,12.63
2019-01-17T02:21:21.255Z,14.33
2019-01-17T02:23:49.738Z,12.40
2019-01-17T02:26:18.279Z,15.10
2019-01-17T02:28:46.752Z,11.03
2019-01-17T02:31:15.246Z,10.67
2019-01-17T02:33:43.781Z,14.87
2019-01-17T02:36:12.333Z,12.47
2019-01-17T02:38:40.869Z,13.37
2019-01-17T02:41:09.313Z,11.40
2019-01-17T02:43:37.766Z,10.93
2019-01-17T02:46:06.404Z,15.00
2019-01-17T02:48:34.978Z,13.07
2019-01-17T02:51:03.502Z,11.63
2019-01-17T02:53:31.972Z,16.53
2019-01-17T02:56:00.439Z,13.03
2019-01-17T02:58:29.155Z,11.73
2019-01-17T03:00:57.663Z,12.43
2019-01-17T03:03:26.118Z,13.73
2019-01-17T03:05:54.579Z,10.50
2019-01-17T03:08:23.110Z,11.47
2019-01-17T03:10:51.579Z,10.80
2019-01-17T03:13:20.029Z,12.33
2019-01-17T03:15:48.489Z,11.00
2019-01-17T03:18:16.960Z,10.93
2019-01-17T03:20:45.410Z,10.13
2019-01-17T03:23:13.871Z,11.40
2019-01-17T03:25:42.364Z,9.47
2019-01-17T03:28:10.818Z,10.20
2019-01-17T03:30:39.304Z,12.93
2019-01-17T03:33:08.169Z,12.07
2019-01-17T03:35:36.656Z,10.37
2019-01-17T03:38:05.187Z,14.63
2019-01-17T03:40:33.658Z,12.70
2019-01-17T03:43:02.113Z,10.37
2019-01-17T03:45:30.604Z,9.70
2019-01-17T03:47:59.103Z,11.07
2019-01-17T03:50:27.673Z,11.33
2019-01-17T03:52:56.117Z,9.93
2019-01-17T03:55:25.125Z,9.47
2019-01-17T03:57:53.697Z,12.43
2019-01-17T04:00:22.286Z,9.73
2019-01-17T04:02:50.749Z,9.70
2019-01-17T04:05:19.285Z,12.13
2019-01-17T04:07:47.814Z,9.73
2019-01-17T04:10:16.609Z,8.77
2019-01-17T04:12:45.221Z,10.17
2019-01-17T04:15:14.281Z,9.53
2019-01-17T04:17:42.761Z,9.73
2019-01-17T04:20:13.873Z,10.30
2019-01-17T04:22:42.714Z,8.77
2019-01-17T04:25:11.168Z,9.80
2019-01-17T04:27:40.084Z,8.83
2019-01-17T04:30:13.938Z,8.37
2019-01-17T04:32:42.407Z,9.77
2019-01-17T04:35:10.943Z,9.77
2019-01-17T04:37:39.579Z,9.30
2019-01-17T04:40:10.876Z,8.87
2019-01-17T04:42:39.354Z,9.77
2019-01-17T04:45:10.520Z,8.23
2019-01-17T04:47:38.995Z,7.90
2019-01-17T04:50:13.044Z,9.33
2019-01-17T04:52:41.862Z,8.20
2019-01-17T04:55:12.066Z,7.63
2019-01-17T04:57:40.687Z,5.97
2019-01-17T05:00:15.063Z,5.93
2019-01-17T05:02:43.583Z,6.00
2019-01-17T05:05:12.315Z,8.80
2019-01-17T05:07:40.840Z,9.10
2019-01-17T05:10:12.286Z,7.53
2019-01-17T05:12:40.830Z,6.43
2019-01-17T05:15:10.416Z,6.23
2019-01-17T05:17:38.990Z,8.17
2019-01-17T05:20:14.989Z,8.83
2019-01-17T05:22:43.619Z,4.00
2019-01-17T05:25:13.147Z,5.17
2019-01-17T05:27:41.609Z,5.60
2019-01-17T05:30:15.878Z,7.17
2019-01-17T05:32:44.538Z,4.90
2019-01-17T05:35:13.270Z,4.93
2019-01-17T05:37:41.884Z,5.33
2019-01-17T05:40:18.679Z,5.77
2019-01-17T05:42:47.277Z,5.57
2019-01-17T05:45:16.456Z,5.27
2019-01-17T05:47:45.104Z,5.40
2019-01-17T05:50:17.934Z,5.77
2019-01-17T05:52:46.388Z,6.73
2019-01-17T05:55:19.780Z,6.27
2019-01-17T05:57:45.187Z,5.33
2019-01-17T06:00:16.489Z,8.53
2019-01-17T06:02:44.941Z,5.43
2019-01-17T06:05:14.143Z,6.03
2019-01-17T06:07:42.669Z,8.10
2019-01-17T06:10:12.375Z,6.30
2019-01-17T06:12:40.819Z,6.10
2019-01-17T06:15:15.336Z,6.70
2019-01-17T06:17:48.950Z,6.70
2019-01-17T06:20:17.999Z,5.17
2019-01-17T06:22:46.517Z,6.73
2019-01-17T06:25:15.048Z,7.03
2019-01-17T06:27:43.607Z,4.80
2019-01-17T06:30:14.564Z,6.77
2019-01-17T06:32:43.084Z,6.90
2019-01-17T06:35:11.972Z,7.87
2019-01-17T06:37:40.503Z,7.00
2019-01-17T06:40:20.823Z,6.37
2019-01-17T06:42:49.353Z,5.97
2019-01-17T06:45:17.898Z,7.67
2019-01-17T06:47:46.377Z,5.23
2019-01-17T06:50:14.890Z,6.83
2019-01-17T06:52:43.346Z,5.53
2019-01-17T06:55:11.863Z,6.97
2019-01-17T06:57:40.331Z,6.37
2019-01-17T07:00:11.666Z,5.30
2019-01-17T07:02:40.264Z,8.03
2019-01-17T07:05:09.558Z,7.07
2019-01-17T07:07:38.035Z,6.37
2019-01-17T07:10:09.586Z,8.03
2019-01-17T07:12:38.125Z,6.97
2019-01-17T07:15:08.603Z,6.80
2019-01-17T07:17:37.073Z,6.63
2019-01-17T07:20:08.129Z,6.97
2019-01-17T07:22:36.606Z,9.27
2019-01-17T07:25:07.258Z,8.50
2019-01-17T07:27:35.733Z,7.03
2019-01-17T07:30:07.709Z,6.67
2019-01-17T07:32:36.191Z,8.60
2019-01-17T07:35:05.777Z,7.73
2019-01-17T07:37:34.247Z,6.10
2019-01-17T07:40:02.838Z,6.90
2019-01-17T07:42:31.292Z,9.00
2019-01-17T07:44:59.754Z,9.00
2019-01-17T07:47:28.283Z,12.03
2019-01-17T07:49:56.750Z,8.47
2019-01-17T07:52:25.222Z,7.97
2019-01-17T07:54:53.691Z,8.20
2019-01-17T07:57:22.145Z,8.63
2019-01-17T07:59:50.614Z,9.67
2019-01-17T08:02:19.065Z,7.87
2019-01-17T08:04:47.529Z,7.27
2019-01-17T08:07:15.999Z,7.13
2019-01-17T08:09:44.457Z,7.67
2019-01-17T08:12:12.922Z,8.20
2019-01-17T08:14:41.392Z,6.17
2019-01-17T08:17:09.862Z,6.50
2019-01-17T08:19:38.338Z,9.50
2019-01-17T08:22:06.852Z,8.60
2019-01-17T08:24:35.338Z,6.67
2019-01-17T08:27:04.102Z,6.33
2019-01-17T08:29:32.577Z,6.17
2019-01-17T08:32:01.107Z,8.63
2019-01-17T08:34:29.570Z,7.97
2019-01-17T08:36:58.080Z,8.30
2019-01-17T08:39:26.604Z,8.33
2019-01-17T08:41:55.063Z,7.03
2019-01-17T08:44:23.528Z,9.20
2019-01-17T08:46:52.224Z,9.90
2019-01-17T08:49:20.675Z,9.40
2019-01-17T08:51:49.154Z,7.23
2019-01-17T08:54:17.580Z,8.47
2019-01-17T08:56:46.079Z,7.53
2019-01-17T08:59:14.551Z,9.07
2019-01-17T09:01:43.071Z,9.73
2019-01-17T09:04:11.560Z,9.40
2019-01-17T09:06:40.090Z,10.77
2019-01-17T09:09:09.280Z,6.77
2019-01-17T09:11:37.844Z,7.70
2019-01-17T09:14:06.611Z,5.90
2019-01-17T09:16:35.124Z,7.30
2019-01-17T09:19:03.862Z,6.97
2019-01-17T09:21:32.477Z,8.37
2019-01-17T09:24:01.083Z,6.07
2019-01-17T09:26:29.603Z,10.07
2019-01-17T09:28:58.059Z,6.97
2019-01-17T09:31:26.525Z,7.53
2019-01-17T09:33:55.091Z,7.57
2019-01-17T09:36:23.664Z,10.13
2019-01-17T09:38:52.204Z,8.80
2019-01-17T09:41:20.838Z,8.83
2019-01-17T09:43:49.496Z,9.43
2019-01-17T09:46:18.000Z,7.17
2019-01-17T09:48:46.509Z,7.77
2019-01-17T09:51:15.289Z,7.87
2019-01-17T09:53:43.762Z,7.97
2019-01-17T09:56:14.997Z,5.73
2019-01-17T09:58:42.433Z,6.87
2019-01-17T10:01:10.938Z,7.53
2019-01-17T10:03:39.455Z,4.53
2019-01-17T10:06:08.018Z,4.40
2019-01-17T10:08:36.483Z,4.57
2019-01-17T10:11:05.129Z,7.50
2019-01-17T10:13:33.650Z,4.67
2019-01-17T10:16:14.367Z,6.47
2019-01-17T10:19:03.028Z,5.87
2019-01-17T10:21:46.659Z,5.37
2019-01-17T10:24:34.872Z,5.67
2019-01-17T10:27:12.463Z,4.40
2019-01-17T10:30:15.869Z,5.00
2019-01-17T10:32:50.342Z,4.53
2019-01-17T10:35:41.629Z,4.77
2019-01-17T10:38:22.122Z,4.53
2019-01-17T10:41:10.366Z,4.47
2019-01-17T10:43:57.119Z,4.40
2019-01-17T10:46:46.937Z,4.47
2019-01-17T10:49:39.843Z,5.33
2019-01-17T10:52:20.312Z,5.10
2019-01-17T10:54:52.007Z,6.80
2019-01-17T10:57:23.596Z,4.47
2019-01-17T10:59:58.014Z,4.60
2019-01-17T11:02:35.427Z,5.70
2019-01-17T11:05:18.971Z,6.20
2019-01-17T11:07:56.282Z,5.83
2019-01-17T11:10:44.384Z,7.27
2019-01-17T11:13:34.086Z,6.20
2019-01-17T11:16:17.435Z,4.50
2019-01-17T11:19:15.673Z,5.13
2019-01-17T11:22:02.392Z,4.90
2019-01-17T11:25:06.886Z,5.07
2019-01-17T11:27:56.289Z,4.40
2019-01-17T11:30:30.828Z,5.23
2019-01-17T11:33:14.090Z,6.23
2019-01-17T11:35:45.894Z,4.70
2019-01-17T11:38:29.308Z,4.27
2019-01-17T11:41:23.583Z,7.23
2019-01-17T11:44:13.521Z,6.10
2019-01-17T11:47:08.959Z,5.00
2019-01-17T11:50:05.934Z,5.77
2019-01-17T11:52:41.429Z,4.57
2019-01-17T11:55:34.713Z,6.77
2019-01-17T11:59:12.705Z,4.53
2019-01-17T12:01:50.687Z,4.47
2019-01-17T12:04:40.235Z,4.87
2019-01-17T12:07:13.815Z,4.77
2019-01-17T12:09:52.880Z,5.43
2019-01-17T12:12:25.074Z,5.23
2019-01-17T12:15:01.973Z,4.30
2019-01-17T12:17:30.464Z,3.50
2019-01-17T12:19:58.949Z,3.73
2019-01-17T12:22:27.522Z,3.87
2019-01-17T12:24:57.005Z,4.20
2019-01-17T12:27:25.508Z,3.50
2019-01-17T12:29:54.119Z,3.33
2019-01-17T12:32:22.637Z,2.77
2019-01-17T12:34:51.118Z,3.63
2019-01-17T12:37:19.605Z,3.50
2019-01-17T12:39:48.130Z,2.93
2019-01-17T12:42:16.894Z,2.50
2019-01-17T12:44:45.345Z,3.67
2019-01-17T12:47:14.014Z,2.40
2019-01-17T12:49:42.563Z,2.40
2019-01-17T12:52:11.043Z,1.70
2019-01-17T12:54:39.514Z,2.50
2019-01-17T12:57:07.966Z,2.17
2019-01-17T12:59:36.470Z,1.90
2019-01-17T13:02:09.087Z,2.60
2019-01-17T13:04:41.511Z,2.30
2019-01-17T13:07:13.537Z,1.97
2019-01-17T13:09:51.418Z,1.60
2019-01-17T13:12:24.736Z,1.77
2019-01-17T13:15:20.057Z,2.23
2019-01-17T13:17:49.140Z,1.50
2019-01-17T13:20:22.037Z,3.20
2019-01-17T13:22:56.042Z,2.00
2019-01-17T13:25:34.627Z,1.43
2019-01-17T13:28:05.362Z,2.23
2019-01-17T13:30:37.878Z,1.77
2019-01-17T13:33:06.975Z,2.03
2019-01-17T13:35:37.493Z,2.77
2019-01-17T13:38:06.510Z,2.50
2019-01-17T13:40:39.796Z,1.27
2019-01-17T13:43:13.619Z,2.13
2019-01-17T13:45:47.666Z,1.33
2019-01-17T13:48:21.315Z,2.07
2019-01-17T13:50:54.599Z,1.60
2019-01-17T13:53:26.373Z,1.60
2019-01-17T13:55:56.604Z,1.80
2019-01-17T13:58:30.148Z,1.73
2019-01-17T14:01:08.302Z,1.53
2019-01-17T14:03:37.442Z,1.73
2019-01-17T14:06:09.255Z,3.00
2019-01-17T14:08:38.448Z,2.03
2019-01-17T14:11:11.890Z,1.40
2019-01-17T14:13:41.142Z,1.50
2019-01-17T14:16:15.949Z,2.00
2019-01-17T14:18:47.878Z,2.03
2019-01-17T14:21:18.606Z,1.17
2019-01-17T14:23:50.269Z,1.83
2019-01-17T14:26:24.206Z,1.33
2019-01-17T14:28:57.399Z,1.43
2019-01-17T14:31:35.965Z,1.40
2019-01-17T14:34:05.336Z,3.47
2019-01-17T14:36:37.674Z,1.73
2019-01-17T14:39:12.250Z,3.03
2019-01-17T14:41:45.971Z,5.23
2019-01-17T14:44:18.318Z,1.27
2019-01-17T14:46:49.884Z,2.43
2019-01-17T14:49:22.228Z,1.90
2019-01-17T14:51:51.460Z,1.83
2019-01-17T14:54:21.876Z,1.57
2019-01-17T14:57:05.922Z,1.97
2019-01-17T14:59:42.857Z,2.00
2019-01-17T15:02:11.890Z,2.63
2019-01-17T15:04:46.873Z,2.43
2019-01-17T15:07:19.113Z,1.47
2019-01-17T15:09:48.005Z,2.73
2019-01-17T15:12:17.103Z,3.83
2019-01-17T15:14:50.739Z,1.30
2019-01-17T15:17:21.694Z,3.10
2019-01-17T15:19:52.019Z,3.23
2019-01-17T15:22:24.049Z,2.47
2019-01-17T15:24:57.955Z,2.93
2019-01-17T15:27:27.570Z,3.60
2019-01-17T15:30:04.523Z,2.93
2019-01-17T15:32:33.629Z,2.23
2019-01-17T15:35:07.464Z,1.90
2019-01-17T15:37:41.836Z,3.53
2019-01-17T15:40:15.322Z,4.17
2019-01-17T15:42:49.391Z,4.53
2019-01-17T15:45:21.007Z,3.67
2019-01-17T15:47:50.325Z,2.87
2019-01-17T15:50:22.001Z,4.33
2019-01-17T15:52:56.509Z,3.43
2019-01-17T15:55:25.627Z,3.70
2019-01-17T15:57:56.352Z,3.83
2019-01-17T16:00:32.088Z,3.13
2019-01-17T16:03:01.103Z,2.83
2019-01-17T16:05:33.160Z,3.80
2019-01-17T16:08:09.081Z,3.07
2019-01-17T16:10:45.642Z,2.63
2019-01-17T16:13:25.124Z,3.20
2019-01-17T16:16:01.669Z,3.80
2019-01-17T16:18:30.897Z,2.63
2019-01-17T16:21:11.051Z,3.97
2019-01-17T16:23:47.493Z,1.93
2019-01-17T16:26:19.227Z,1.67
2019-01-17T16:28:48.469Z,5.77
2019-01-17T16:31:22.930Z,3.57
2019-01-17T16:33:52.244Z,4.77
2019-01-17T16:36:30.398Z,3.93
2019-01-17T16:39:01.899Z,4.03
2019-01-17T16:41:36.732Z,3.10
2019-01-17T16:44:11.713Z,1.80
2019-01-17T16:46:42.138Z,1.70
2019-01-17T16:49:19.732Z,1.47
2019-01-17T16:51:53.439Z,11.17
2019-01-17T16:54:24.039Z,4.73
2019-01-17T16:56:59.051Z,2.13
2019-01-17T16:59:34.088Z,4.63
2019-01-17T17:02:07.635Z,3.97
2019-01-17T17:04:47.377Z,3.33
2019-01-17T17:07:24.041Z,4.30
2019-01-17T17:09:58.181Z,6.30
2019-01-17T17:12:33.044Z,2.90
2019-01-17T17:15:08.853Z,1.23
2019-01-17T17:17:47.177Z,1.70
2019-01-17T17:20:21.580Z,2.80
2019-01-17T17:22:52.153Z,1.83
2019-01-17T17:25:25.407Z,2.30
2019-01-17T17:28:00.971Z,3.53
2019-01-17T17:30:31.777Z,3.93
2019-01-17T17:33:01.230Z,4.43
2019-01-17T17:35:33.993Z,3.10
2019-01-17T17:38:09.000Z,1.60
2019-01-17T17:40:42.337Z,7.27
2019-01-17T17:43:15.311Z,4.93
2019-01-17T17:45:57.173Z,1.60
2019-01-17T17:48:36.131Z,0.60
2019-01-17T17:51:05.650Z,6.60
2019-01-17T17:53:41.387Z,4.00
2019-01-17T17:56:22.431Z,2.97
2019-01-17T17:58:59.765Z,1.17
2019-01-17T18:01:33.739Z,1.93
2019-01-17T18:04:02.957Z,1.33
2019-01-17T18:06:53.629Z,1.10
2019-01-17T18:09:19.333Z,1.20
2019-01-17T18:11:57.528Z,1.30
2019-01-17T18:14:32.940Z,1.20
2019-01-17T18:17:01.431Z,1.30
2019-01-17T18:19:29.900Z,1.30
2019-01-17T18:21:58.432Z,1.20
2019-01-17T18:24:26.992Z,1.93
2019-01-17T18:26:55.522Z,2.73
2019-01-17T18:29:23.992Z,2.10
2019-01-17T18:31:52.909Z,2.10
2019-01-17T18:34:21.450Z,2.40
2019-01-17T18:36:49.984Z,2.90
2019-01-17T18:39:18.825Z,2.80
2019-01-17T18:41:47.343Z,3.53
2019-01-17T18:44:15.791Z,3.33
2019-01-17T18:46:44.271Z,2.70
2019-01-17T18:49:12.990Z,2.87
2019-01-17T18:51:41.585Z,2.77
2019-01-17T18:54:10.047Z,3.37
2019-01-17T18:56:38.680Z,2.57
2019-01-17T18:59:07.306Z,2.60
2019-01-17T19:01:36.221Z,2.90
2019-01-17T19:04:04.819Z,4.70
2019-01-17T19:06:33.274Z,3.57
2019-01-17T19:09:01.740Z,3.70
2019-01-17T19:11:30.466Z,3.70
2019-01-17T19:13:59.407Z,4.13
2019-01-17T19:16:27.856Z,3.73
2019-01-17T19:18:56.421Z,4.83
2019-01-17T19:21:24.882Z,6.03
2019-01-17T19:23:53.698Z,18.23
2019-01-17T19:26:22.322Z,7.23
2019-01-17T19:28:50.947Z,8.47
2019-01-17T19:31:19.400Z,6.47
2019-01-17T19:33:47.857Z,5.77
2019-01-17T19:36:16.531Z,6.83
2019-01-17T19:38:44.996Z,8.67
2019-01-17T19:41:13.536Z,5.13
2019-01-17T19:43:42.075Z,6.73
2019-01-17T19:46:10.541Z,5.27
2019-01-17T19:48:38.984Z,8.77
2019-01-17T19:51:07.882Z,6.57
2019-01-17T19:53:36.353Z,7.50
2019-01-17T19:56:04.943Z,6.47
2019-01-17T19:58:33.944Z,12.67
2019-01-17T20:01:08.419Z,8.13
2019-01-17T20:03:36.939Z,7.80
2019-01-17T20:06:05.757Z,8.23
2019-01-17T20:08:34.573Z,7.00
2019-01-17T20:11:03.035Z,5.60
2019-01-17T20:13:31.522Z,7.93
2019-01-17T20:16:00.049Z,8.23
2019-01-17T20:18:28.760Z,6.20
2019-01-17T20:20:57.579Z,6.27
2019-01-17T20:23:26.422Z,6.20
2019-01-17T20:25:54.882Z,7.80
2019-01-17T20:28:23.421Z,5.30
2019-01-17T20:30:51.887Z,6.20
2019-01-17T20:33:20.350Z,3.87
2019-01-17T20:35:48.842Z,5.63
2019-01-17T20:38:17.383Z,5.60
2019-01-17T20:40:45.921Z,5.50
2019-01-17T20:43:14.459Z,5.63
2019-01-17T20:45:43.001Z,8.10
2019-01-17T20:48:12.321Z,4.93
2019-01-17T20:50:40.874Z,5.97
2019-01-17T20:53:09.341Z,5.20
2019-01-17T20:55:37.879Z,6.10
2019-01-17T20:58:06.343Z,5.50
2019-01-17T21:00:43.869Z,4.90
2019-01-17T21:03:14.480Z,4.90
2019-01-17T21:05:42.973Z,3.60
2019-01-17T21:08:11.502Z,5.17
2019-01-17T21:10:40.135Z,3.97
2019-01-17T21:13:08.704Z,3.87
2019-01-17T21:15:37.157Z,4.87
2019-01-17T21:18:05.691Z,4.17
2019-01-17T21:20:34.173Z,6.60
2019-01-17T21:23:02.618Z,7.60
2019-01-17T21:25:31.153Z,6.30
2019-01-17T21:27:59.592Z,6.10
2019-01-17T21:30:28.055Z,5.77
2019-01-17T21:32:56.643Z,5.83
2019-01-17T21:35:25.113Z,4.77
2019-01-17T21:37:53.573Z,4.87
2019-01-17T21:40:23.858Z,5.13
2019-01-17T21:42:53.575Z,6.93
2019-01-17T21:45:22.178Z,4.23
2019-01-17T21:47:50.692Z,5.23
2019-01-17T21:50:30.871Z,5.90
2019-01-17T21:52:59.521Z,5.40
2019-01-17T21:55:28.070Z,6.43
2019-01-17T21:57:56.536Z,7.07
2019-01-17T22:00:27.614Z,9.00
2019-01-17T22:02:56.350Z,6.77
2019-01-17T22:05:24.933Z,6.83
2019-01-17T22:07:53.389Z,5.10
2019-01-17T22:10:22.242Z,5.83
2019-01-17T22:12:50.744Z,6.57
2019-01-17T22:15:22.102Z,4.27
2019-01-17T22:17:50.707Z,4.53
2019-01-17T22:20:19.257Z,4.50
2019-01-17T22:22:47.790Z,5.30
2019-01-17T22:25:18.188Z,6.73
2019-01-17T22:27:47.992Z,5.73
2019-01-17T22:30:27.990Z,7.43
2019-01-17T22:32:56.621Z,7.27
2019-01-17T22:35:25.074Z,7.50
2019-01-17T22:37:53.535Z,7.60
2019-01-17T22:40:22.080Z,6.70
2019-01-17T22:42:50.614Z,9.70
2019-01-17T22:45:24.947Z,6.83
2019-01-17T22:47:53.550Z,6.17
2019-01-17T22:50:22.075Z,6.80
2019-01-17T22:52:51.363Z,5.93
2019-01-17T22:55:19.842Z,5.23
2019-01-17T22:57:48.296Z,3.93
2019-01-17T23:00:40.857Z,5.30
2019-01-17T23:03:09.339Z,3.53
2019-01-17T23:05:37.788Z,5.77
2019-01-17T23:08:06.245Z,5.80
2019-01-17T23:10:34.711Z,8.57
2019-01-17T23:13:03.185Z,4.67
2019-01-17T23:15:31.648Z,6.10
2019-01-17T23:18:00.108Z,8.33
2019-01-17T23:20:28.622Z,5.70
2019-01-17T23:22:57.087Z,4.63
2019-01-17T23:25:25.767Z,5.63
2019-01-17T23:27:54.251Z,4.37
2019-01-17T23:30:22.957Z,5.23
2019-01-17T23:32:54.365Z,6.73
2019-01-17T23:35:22.880Z,9.47
2019-01-17T23:37:51.325Z,9.53
2019-01-17T23:40:20.138Z,6.80
2019-01-17T23:42:48.588Z,8.77
2019-01-17T23:45:17.040Z,8.90
2019-01-17T23:47:45.485Z,5.93
2019-01-17T23:50:14.069Z,6.67
2019-01-17T23:52:42.514Z,7.60
2019-01-17T23:55:11.038Z,7.37
2019-01-17T23:57:39.492Z,9.63
